Time;durP1;ratioP1;P1;durP2;ratioP2;P2;SDS_P1;SDS_P2;PMS_P1;PMS_P2;Temp;Humidity;BMP_temperature;BMP_pressure;BME280_temperature;BME280_humidity;BME280_pressure;Samples;Min_cycle;Max_cycle;Signal;HPM_P1;HPM_P2
2022/02/14 00:00:21;;;;;;;8.98;4.60;;;;;;;;;;5091118;28;20490;-62
2022/02/14 00:02:47;;;;;;;7.32;3.83;;;;;;;;;;5091308;28;20020;-61
2022/02/14 00:05:13;;;;;;;8.23;4.32;;;;;;;;;;5091325;28;20024;-61
2022/02/14 00:07:39;;;;;;;11.00;4.80;;;;;;;;;;5091366;28;20031;-61
2022/02/14 00:10:06;;;;;;;8.07;4.28;;;;;;;;;;5091103;28;20027;-61
2022/02/14 00:12:34;;;;;;;8.40;4.40;;;;;;;;;;5091377;28;20495;-61
2022/02/14 00:15:00;;;;;;;6.82;4.03;;;;;;;;;;5091186;28;20039;-61
2022/02/14 00:17:27;;;;;;;7.68;4.40;;;;;;;;;;5091222;28;20024;-60
2022/02/14 00:19:53;;;;;;;7.93;4.15;;;;;;;;;;5091145;28;20023;-59
2022/02/14 00:22:21;;;;;;;10.63;4.88;;;;;;;;;;5091218;28;20024;-60
2022/02/14 00:24:51;;;;;;;9.50;4.70;;;;;;;;;;5090992;28;20020;-59
2022/02/14 00:27:17;;;;;;;10.07;3.85;;;;;;;;;;5090783;28;20467;-61
2022/02/14 00:29:44;;;;;;;9.90;4.57;;;;;;;;;;5090956;28;20103;-62
2022/02/14 00:32:10;;;;;;;9.68;4.85;;;;;;;;;;5090962;28;20020;-60
2022/02/14 00:34:36;;;;;;;7.82;4.43;;;;;;;;;;5091104;28;20103;-61
2022/02/14 00:37:02;;;;;;;8.63;4.68;;;;;;;;;;5090974;28;20032;-59
2022/02/14 00:39:28;;;;;;;8.90;4.50;;;;;;;;;;5090927;28;20024;-59
2022/02/14 00:41:54;;;;;;;10.43;4.82;;;;;;;;;;5091072;28;20020;-61
2022/02/14 00:44:20;;;;;;;7.55;4.30;;;;;;;;;;5090895;28;20021;-62
2022/02/14 00:46:47;;;;;;;7.15;4.18;;;;;;;;;;5090791;28;20024;-61
2022/02/14 00:49:13;;;;;;;8.25;4.15;;;;;;;;;;5090848;28;20399;-62
2022/02/14 00:51:39;;;;;;;8.00;4.47;;;;;;;;;;5090915;28;20111;-59
2022/02/14 00:54:05;;;;;;;9.50;4.47;;;;;;;;;;5090590;28;20024;-61
2022/02/14 00:56:31;;;;;;;9.75;3.47;;;;;;;;;;5090914;28;20638;-62
2022/02/14 00:58:57;;;;;;;6.95;3.95;;;;;;;;;;5093218;28;20073;-60
2022/02/14 01:01:23;;;;;;;6.85;3.97;;;;;;;;;;5094331;28;20071;-59
2022/02/14 01:03:49;;;;;;;8.02;4.57;;;;;;;;;;5091738;28;20556;-61
2022/02/14 01:06:16;;;;;;;6.63;3.78;;;;;;;;;;5078371;28;20545;-62
2022/02/14 01:08:43;;;;;;;8.98;3.95;;;;;;;;;;5094401;28;20020;-61
2022/02/14 01:11:09;;;;;;;7.50;4.13;;;;;;;;;;5094428;28;20027;-59
2022/02/14 01:13:35;;;;;;;7.63;4.45;;;;;;;;;;5094319;28;20024;-60
2022/02/14 01:16:01;;;;;;;7.25;4.00;;;;;;;;;;5094081;28;20032;-62
2022/02/14 01:18:27;;;;;;;6.97;4.00;;;;;;;;;;5094331;28;20069;-61
2022/02/14 01:20:53;;;;;;;7.90;4.75;;;;;;;;;;5093941;28;20077;-61
2022/02/14 01:23:19;;;;;;;8.07;4.40;;;;;;;;;;5094073;28;20032;-60
2022/02/14 01:25:45;;;;;;;10.63;4.15;;;;;;;;;;5093946;28;20052;-59
2022/02/14 01:28:11;;;;;;;13.85;4.72;;;;;;;;;;5093645;28;20020;-59
2022/02/14 01:30:37;;;;;;;8.82;4.45;;;;;;;;;;5093696;28;20489;-59
2022/02/14 01:33:04;;;;;;;10.57;4.05;;;;;;;;;;5093877;28;20090;-60
2022/02/14 01:35:30;;;;;;;8.55;4.63;;;;;;;;;;5093876;28;20028;-59
2022/02/14 01:37:56;;;;;;;10.80;4.07;;;;;;;;;;5093811;28;20020;-60
2022/02/14 01:40:23;;;;;;;8.80;4.28;;;;;;;;;;5093844;28;20424;-59
2022/02/14 01:42:49;;;;;;;7.43;4.10;;;;;;;;;;5093952;28;20020;-61
2022/02/14 01:45:15;;;;;;;8.05;4.50;;;;;;;;;;5093934;28;20054;-61
2022/02/14 01:47:42;;;;;;;7.38;4.18;;;;;;;;;;5085795;28;20052;-60
2022/02/14 01:50:09;;;;;;;10.10;4.65;;;;;;;;;;5073863;28;20074;-61
2022/02/14 01:52:36;;;;;;;8.38;4.30;;;;;;;;;;5073622;28;20517;-60
2022/02/14 01:55:03;;;;;;;8.13;4.40;;;;;;;;;;5073845;28;20064;-60
2022/02/14 01:57:29;;;;;;;13.02;3.75;;;;;;;;;;5073811;28;20020;-59
2022/02/14 01:59:58;;;;;;;12.50;4.28;;;;;;;;;;5073702;28;20622;-60
2022/02/14 02:02:24;;;;;;;10.13;4.97;;;;;;;;;;5073639;28;20093;-60
2022/02/14 02:04:50;;;;;;;8.77;4.10;;;;;;;;;;5076435;28;20353;-59
2022/02/14 02:07:16;;;;;;;8.20;4.43;;;;;;;;;;5073064;28;20021;-60
2022/02/14 02:09:43;;;;;;;9.30;4.60;;;;;;;;;;5091200;28;20522;-59
2022/02/14 02:12:26;;;;;;;7.03;4.35;;;;;;;;;;5074823;28;20031;-59
2022/02/14 02:14:56;;;;;;;10.25;4.90;;;;;;;;;;5083911;28;20037;-59
2022/02/14 02:17:26;;;;;;;7.97;4.70;;;;;;;;;;5072295;28;20028;-59
2022/02/14 02:19:52;;;;;;;8.27;4.72;;;;;;;;;;5072326;28;20096;-60
2022/02/14 02:22:18;;;;;;;10.98;4.85;;;;;;;;;;5072212;28;20067;-59
2022/02/14 02:24:46;;;;;;;7.50;4.60;;;;;;;;;;5073125;28;20027;-59
2022/02/14 02:27:12;;;;;;;9.65;4.60;;;;;;;;;;5073058;28;20016;-60
2022/02/14 02:29:39;;;;;;;7.25;4.38;;;;;;;;;;5072745;28;20020;-60
2022/02/14 02:32:06;;;;;;;8.90;4.28;;;;;;;;;;5072655;28;20020;-61
2022/02/14 02:34:32;;;;;;;7.70;4.10;;;;;;;;;;5072923;28;20029;-59
2022/02/14 02:36:59;;;;;;;7.43;4.32;;;;;;;;;;5072741;28;20032;-61
2022/02/14 02:39:26;;;;;;;8.63;4.47;;;;;;;;;;5072548;28;20073;-60
2022/02/14 02:41:53;;;;;;;10.10;4.97;;;;;;;;;;5071826;28;20023;-61
2022/02/14 02:44:20;;;;;;;10.45;4.25;;;;;;;;;;5072679;28;20021;-61
2022/02/14 02:46:46;;;;;;;8.45;4.35;;;;;;;;;;5072641;28;20447;-60
2022/02/14 02:49:17;;;;;;;9.82;4.35;;;;;;;;;;5072346;28;20077;-61
2022/02/14 02:51:44;;;;;;;7.20;4.65;;;;;;;;;;5072118;28;20032;-60
2022/02/14 02:54:10;;;;;;;8.15;4.82;;;;;;;;;;5072278;28;20031;-60
2022/02/14 02:56:37;;;;;;;8.57;4.88;;;;;;;;;;5072351;28;20107;-60
2022/02/14 02:59:04;;;;;;;8.65;4.80;;;;;;;;;;5072068;28;20550;-60
2022/02/14 03:01:31;;;;;;;7.63;4.40;;;;;;;;;;5071863;28;20083;-61
2022/02/14 03:03:57;;;;;;;7.50;4.35;;;;;;;;;;5072240;28;20021;-60
2022/02/14 03:06:24;;;;;;;7.60;4.72;;;;;;;;;;5072304;28;20415;-60
2022/02/14 03:08:51;;;;;;;11.95;4.95;;;;;;;;;;5072141;28;20020;-60
2022/02/14 03:11:17;;;;;;;12.20;5.25;;;;;;;;;;5072059;28;20021;-60
2022/02/14 03:13:44;;;;;;;8.43;4.55;;;;;;;;;;5072225;28;20078;-60
2022/02/14 03:16:10;;;;;;;10.15;5.20;;;;;;;;;;5072157;28;20032;-60
2022/02/14 03:18:36;;;;;;;9.65;4.47;;;;;;;;;;5072028;28;20021;-59
2022/02/14 03:21:02;;;;;;;8.80;4.72;;;;;;;;;;5071259;28;20032;-61
2022/02/14 03:23:28;;;;;;;7.75;4.55;;;;;;;;;;5072119;28;20052;-60
2022/02/14 03:25:54;;;;;;;7.80;4.80;;;;;;;;;;5071912;28;20029;-60
2022/02/14 03:28:20;;;;;;;7.60;4.45;;;;;;;;;;5072107;28;20095;-60
2022/02/14 03:30:47;;;;;;;8.25;5.07;;;;;;;;;;5072157;28;20375;-60
2022/02/14 03:33:13;;;;;;;9.05;5.70;;;;;;;;;;5072301;28;20024;-59
2022/02/14 03:35:39;;;;;;;8.32;4.97;;;;;;;;;;5071979;28;20032;-61
2022/02/14 03:38:06;;;;;;;10.52;5.28;;;;;;;;;;5072217;28;20157;-60
2022/02/14 03:40:36;;;;;;;8.93;4.90;;;;;;;;;;5072198;28;20073;-60
2022/02/14 03:43:02;;;;;;;8.48;4.90;;;;;;;;;;5072282;28;20541;-60
2022/02/14 03:45:29;;;;;;;8.60;5.10;;;;;;;;;;5072394;28;20518;-61
2022/02/14 03:47:55;;;;;;;9.57;5.43;;;;;;;;;;5072164;28;20517;-59
2022/02/14 03:50:21;;;;;;;9.43;5.43;;;;;;;;;;5071861;28;20028;-60
2022/02/14 03:52:47;;;;;;;10.18;5.43;;;;;;;;;;5072058;28;20043;-60
2022/02/14 03:55:13;;;;;;;8.48;5.38;;;;;;;;;;5071861;28;20029;-59
2022/02/14 03:57:39;;;;;;;8.40;5.68;;;;;;;;;;5072141;28;20032;-59
2022/02/14 04:00:08;;;;;;;8.57;5.07;;;;;;;;;;5071987;28;20026;-60
2022/02/14 04:02:35;;;;;;;10.48;6.32;;;;;;;;;;5071836;28;20089;-60
2022/02/14 04:05:02;;;;;;;8.00;4.90;;;;;;;;;;5072065;28;20108;-60
2022/02/14 04:07:28;;;;;;;10.27;5.80;;;;;;;;;;5071907;28;20024;-59
2022/02/14 04:09:54;;;;;;;10.60;5.90;;;;;;;;;;5071920;28;20082;-61
2022/02/14 04:12:21;;;;;;;9.75;6.00;;;;;;;;;;5054148;28;20430;-61
2022/02/14 04:14:47;;;;;;;10.73;6.38;;;;;;;;;;5071833;28;20082;-61
2022/02/14 04:17:13;;;;;;;9.48;5.95;;;;;;;;;;5071929;28;20111;-60
2022/02/14 04:19:39;;;;;;;9.18;5.40;;;;;;;;;;5071712;28;20484;-59
2022/02/14 04:22:05;;;;;;;10.48;6.50;;;;;;;;;;5071462;28;20056;-61
2022/02/14 04:24:32;;;;;;;9.25;6.18;;;;;;;;;;5071953;28;20532;-61
2022/02/14 04:26:58;;;;;;;12.80;5.93;;;;;;;;;;5071389;28;20059;-60
2022/02/14 04:29:24;;;;;;;8.50;4.88;;;;;;;;;;5071016;28;20021;-59
2022/02/14 04:31:50;;;;;;;10.23;6.13;;;;;;;;;;5071148;28;20016;-59
2022/02/14 04:34:18;;;;;;;10.82;7.10;;;;;;;;;;5074177;28;20024;-59
2022/02/14 04:36:49;;;;;;;11.07;6.13;;;;;;;;;;5075194;28;20433;-60
2022/02/14 04:39:15;;;;;;;11.07;6.55;;;;;;;;;;5074942;28;20024;-61
2022/02/14 04:41:42;;;;;;;9.52;6.00;;;;;;;;;;5074787;28;20523;-59
2022/02/14 04:44:08;;;;;;;9.45;5.88;;;;;;;;;;5074837;28;20032;-61
2022/02/14 04:46:35;;;;;;;9.93;6.30;;;;;;;;;;5074853;28;20027;-61
2022/02/14 04:49:01;;;;;;;9.63;6.32;;;;;;;;;;5074923;28;20032;-61
2022/02/14 04:51:27;;;;;;;8.82;5.72;;;;;;;;;;5075147;28;20039;-59
2022/02/14 04:53:54;;;;;;;14.35;5.93;;;;;;;;;;5075277;28;20025;-59
2022/02/14 04:56:20;;;;;;;8.32;5.63;;;;;;;;;;5075006;28;20033;-61
2022/02/14 04:58:46;;;;;;;9.77;6.32;;;;;;;;;;5075028;28;20100;-59
2022/02/14 05:01:12;;;;;;;11.20;5.80;;;;;;;;;;5074141;28;20040;-59
2022/02/14 05:03:39;;;;;;;12.18;6.22;;;;;;;;;;5074530;28;20388;-60
2022/02/14 05:06:05;;;;;;;10.68;6.18;;;;;;;;;;5074362;28;20025;-59
2022/02/14 05:08:31;;;;;;;10.23;5.95;;;;;;;;;;5074362;28;20414;-59
2022/02/14 05:10:57;;;;;;;9.77;5.63;;;;;;;;;;5074292;28;20013;-61
2022/02/14 05:13:23;;;;;;;10.27;5.97;;;;;;;;;;5074225;28;20024;-59
2022/02/14 05:15:50;;;;;;;7.88;5.30;;;;;;;;;;5074310;28;20028;-59
2022/02/14 05:18:16;;;;;;;10.80;6.28;;;;;;;;;;5074327;28;20095;-60
2022/02/14 05:20:42;;;;;;;10.32;5.88;;;;;;;;;;5074237;28;20059;-60
2022/02/14 05:23:09;;;;;;;9.35;5.82;;;;;;;;;;5074072;28;20090;-59
2022/02/14 05:25:35;;;;;;;8.75;5.57;;;;;;;;;;5074112;28;20482;-60
2022/02/14 05:28:05;;;;;;;9.23;6.07;;;;;;;;;;5074220;28;20103;-60
2022/02/14 05:30:32;;;;;;;11.48;6.90;;;;;;;;;;5074096;28;20029;-60
2022/02/14 05:32:58;;;;;;;12.00;6.35;;;;;;;;;;5073941;28;20028;-61
2022/02/14 05:35:24;;;;;;;10.75;6.40;;;;;;;;;;5073938;28;20480;-61
2022/02/14 05:37:51;;;;;;;11.25;6.40;;;;;;;;;;5073805;28;20043;-60
2022/02/14 05:40:18;;;;;;;9.88;5.97;;;;;;;;;;5073981;28;20048;-60
2022/02/14 05:42:44;;;;;;;10.65;6.50;;;;;;;;;;5074195;28;20468;-60
2022/02/14 05:45:10;;;;;;;11.30;7.22;;;;;;;;;;5073900;28;20021;-60
2022/02/14 05:47:36;;;;;;;13.43;6.40;;;;;;;;;;5074320;28;20016;-60
2022/02/14 05:50:02;;;;;;;9.15;6.38;;;;;;;;;;5073804;28;20024;-60
2022/02/14 05:52:29;;;;;;;9.43;5.88;;;;;;;;;;5073596;28;20116;-62
2022/02/14 05:54:55;;;;;;;10.65;6.53;;;;;;;;;;5073582;28;20035;-60
2022/02/14 05:57:21;;;;;;;11.25;6.85;;;;;;;;;;5073741;28;20032;-60
2022/02/14 05:59:47;;;;;;;12.82;8.43;;;;;;;;;;5073595;28;20383;-59
2022/02/14 06:02:13;;;;;;;11.07;6.85;;;;;;;;;;5073849;28;20053;-60
2022/02/14 06:04:40;;;;;;;10.98;6.93;;;;;;;;;;5073521;28;20507;-60
2022/02/14 06:07:06;;;;;;;11.52;8.07;;;;;;;;;;5073260;28;20105;-60
2022/02/14 06:09:32;;;;;;;12.27;7.43;;;;;;;;;;5072421;28;20025;-59
2022/02/14 06:11:58;;;;;;;10.88;6.35;;;;;;;;;;5072924;28;20100;-60
2022/02/14 06:14:24;;;;;;;12.18;7.85;;;;;;;;;;5072914;28;20024;-61
2022/02/14 06:16:51;;;;;;;9.73;6.80;;;;;;;;;;5073178;28;20106;-60
2022/02/14 06:19:17;;;;;;;10.45;6.57;;;;;;;;;;5072969;28;20598;-61
2022/02/14 06:21:43;;;;;;;10.35;6.32;;;;;;;;;;5072966;28;20029;-60
2022/02/14 06:24:09;;;;;;;12.05;7.38;;;;;;;;;;5072850;28;20020;-59
2022/02/14 06:26:35;;;;;;;11.43;7.15;;;;;;;;;;5072347;28;20031;-60
2022/02/14 06:29:02;;;;;;;13.90;7.35;;;;;;;;;;5072747;28;20066;-60
2022/02/14 06:31:29;;;;;;;9.68;6.47;;;;;;;;;;5072615;28;20471;-60
2022/02/14 06:33:55;;;;;;;12.95;7.05;;;;;;;;;;5072562;28;20024;-60
2022/02/14 06:36:23;;;;;;;12.70;7.50;;;;;;;;;;5072371;28;20032;-60
2022/02/14 06:38:50;;;;;;;11.18;6.82;;;;;;;;;;5072624;28;20426;-60
2022/02/14 06:41:16;;;;;;;12.23;7.03;;;;;;;;;;5072511;28;20025;-60
2022/02/14 06:43:42;;;;;;;11.18;6.10;;;;;;;;;;5072522;28;20075;-59
2022/02/14 06:46:08;;;;;;;10.88;6.60;;;;;;;;;;5072134;28;20446;-60
2022/02/14 06:48:34;;;;;;;9.90;6.47;;;;;;;;;;5072307;28;20025;-61
2022/02/14 06:51:00;;;;;;;13.30;6.82;;;;;;;;;;5071921;28;20036;-60
2022/02/14 06:53:27;;;;;;;9.80;5.93;;;;;;;;;;5054328;28;20028;-60
2022/02/14 06:55:54;;;;;;;9.75;5.88;;;;;;;;;;5071487;28;20043;-60
2022/02/14 06:58:20;;;;;;;10.63;6.20;;;;;;;;;;5072333;28;20527;-61
2022/02/14 07:00:47;;;;;;;10.98;6.28;;;;;;;;;;5072356;28;20048;-60
2022/02/14 07:03:13;;;;;;;11.77;6.55;;;;;;;;;;5072281;28;20475;-61
2022/02/14 07:05:41;;;;;;;11.50;6.70;;;;;;;;;;5072120;28;20035;-60
2022/02/14 07:08:07;;;;;;;9.77;5.65;;;;;;;;;;5072244;28;20013;-61
2022/02/14 07:10:34;;;;;;;12.25;6.80;;;;;;;;;;5071945;28;20016;-59
2022/02/14 07:13:00;;;;;;;12.45;6.40;;;;;;;;;;5071963;28;20044;-61
2022/02/14 07:15:26;;;;;;;10.48;6.65;;;;;;;;;;5072223;28;20028;-60
2022/02/14 07:17:53;;;;;;;17.63;6.80;;;;;;;;;;5072383;28;20021;-61
2022/02/14 07:20:19;;;;;;;11.23;6.18;;;;;;;;;;5071716;28;20025;-60
2022/02/14 07:22:46;;;;;;;10.05;6.20;;;;;;;;;;5071739;28;20021;-59
2022/02/14 07:25:12;;;;;;;15.15;6.93;;;;;;;;;;5071915;28;20033;-61
2022/02/14 07:27:39;;;;;;;11.57;6.15;;;;;;;;;;5072192;28;20023;-60
2022/02/14 07:30:06;;;;;;;9.40;6.10;;;;;;;;;;5072091;28;20029;-60
2022/02/14 07:32:32;;;;;;;10.90;6.75;;;;;;;;;;5071984;28;20395;-60
2022/02/14 07:34:58;;;;;;;13.43;6.63;;;;;;;;;;5071459;28;20016;-59
2022/02/14 07:37:25;;;;;;;9.98;6.60;;;;;;;;;;5071818;28;20028;-60
2022/02/14 07:39:51;;;;;;;10.25;6.30;;;;;;;;;;5071840;28;20012;-60
2022/02/14 07:42:17;;;;;;;11.43;6.80;;;;;;;;;;5071615;28;20040;-60
2022/02/14 07:44:43;;;;;;;13.55;6.72;;;;;;;;;;5071911;28;20017;-62
2022/02/14 07:47:10;;;;;;;10.27;6.97;;;;;;;;;;5054102;28;20520;-63
2022/02/14 07:49:36;;;;;;;11.30;6.47;;;;;;;;;;5072170;28;20158;-61
2022/02/14 07:52:02;;;;;;;14.15;7.25;;;;;;;;;;5085572;28;20020;-61
2022/02/14 07:54:28;;;;;;;22.50;7.13;;;;;;;;;;5091814;28;20020;-60
2022/02/14 07:56:54;;;;;;;16.80;7.30;;;;;;;;;;5087236;28;20059;-61
2022/02/14 07:59:20;;;;;;;13.45;7.68;;;;;;;;;;5088457;28;20494;-61
2022/02/14 08:01:46;;;;;;;26.95;6.97;;;;;;;;;;5091636;28;20052;-60
2022/02/14 08:04:12;;;;;;;19.83;7.07;;;;;;;;;;5091551;28;20375;-60
2022/02/14 08:06:38;;;;;;;12.93;6.60;;;;;;;;;;5081103;28;20248;-60
2022/02/14 08:09:05;;;;;;;14.43;7.75;;;;;;;;;;5088989;28;20127;-61
2022/02/14 08:11:31;;;;;;;11.82;6.70;;;;;;;;;;5098178;28;20081;-60
2022/02/14 08:13:58;;;;;;;15.60;6.85;;;;;;;;;;5079842;28;20023;-66
2022/02/14 08:16:24;;;;;;;13.48;6.50;;;;;;;;;;5095601;28;20032;-66
2022/02/14 08:18:50;;;;;;;21.67;7.75;;;;;;;;;;5098526;28;20020;-65
2022/02/14 08:21:16;;;;;;;16.20;7.85;;;;;;;;;;5098404;28;20072;-62
2022/02/14 08:23:42;;;;;;;23.58;8.32;;;;;;;;;;5098418;28;20027;-62
2022/02/14 08:26:08;;;;;;;12.18;7.22;;;;;;;;;;5086892;28;20025;-62
2022/02/14 08:28:34;;;;;;;27.45;7.22;;;;;;;;;;5096135;28;20043;-62
2022/02/14 08:31:01;;;;;;;11.07;6.88;;;;;;;;;;5093669;28;20496;-62
2022/02/14 08:33:27;;;;;;;12.95;7.38;;;;;;;;;;5078303;28;20496;-62
2022/02/14 08:35:53;;;;;;;11.02;6.85;;;;;;;;;;5078125;28;20033;-62
2022/02/14 08:38:19;;;;;;;12.57;7.25;;;;;;;;;;5077540;28;20031;-63
2022/02/14 08:40:45;;;;;;;13.48;6.95;;;;;;;;;;5059814;28;20032;-63
2022/02/14 08:43:11;;;;;;;13.43;6.50;;;;;;;;;;5082389;28;20012;-62
2022/02/14 08:45:37;;;;;;;11.57;6.80;;;;;;;;;;5098086;28;20052;-61
2022/02/14 08:48:03;;;;;;;11.80;6.97;;;;;;;;;;5097920;28;20031;-62
2022/02/14 08:50:30;;;;;;;16.05;7.13;;;;;;;;;;5079453;28;20020;-62
2022/02/14 08:52:56;;;;;;;13.80;6.85;;;;;;;;;;5097701;28;20016;-61
2022/02/14 08:55:23;;;;;;;11.35;7.38;;;;;;;;;;5097898;28;20088;-60
2022/02/14 08:57:49;;;;;;;12.30;6.68;;;;;;;;;;5097952;28;20075;-63
2022/02/14 09:00:16;;;;;;;12.30;6.32;;;;;;;;;;5097554;28;20345;-62
2022/02/14 09:02:42;;;;;;;14.45;6.68;;;;;;;;;;5097594;28;20032;-63
2022/02/14 09:05:08;;;;;;;10.88;6.82;;;;;;;;;;5097347;28;20103;-61
2022/02/14 09:07:34;;;;;;;11.23;7.25;;;;;;;;;;5097486;28;20065;-62
2022/02/14 09:10:00;;;;;;;10.48;6.97;;;;;;;;;;5109044;28;20094;-62
2022/02/14 09:12:26;;;;;;;10.27;6.32;;;;;;;;;;5097448;28;20012;-62
2022/02/14 09:14:53;;;;;;;11.70;7.25;;;;;;;;;;5097374;28;20549;-62
2022/02/14 09:17:19;;;;;;;12.88;6.70;;;;;;;;;;5097719;28;20540;-63
2022/02/14 09:19:45;;;;;;;11.98;7.18;;;;;;;;;;5094116;28;20035;-61
2022/02/14 09:22:14;;;;;;;10.00;6.35;;;;;;;;;;5076143;28;20016;-62
2022/02/14 09:24:40;;;;;;;11.27;6.57;;;;;;;;;;5094246;28;20052;-62
2022/02/14 09:27:06;;;;;;;11.48;7.10;;;;;;;;;;5094248;28;20020;-62
2022/02/14 09:29:32;;;;;;;12.20;6.88;;;;;;;;;;5094263;28;20022;-62
2022/02/14 09:31:59;;;;;;;13.18;7.45;;;;;;;;;;5094098;28;20024;-62
2022/02/14 09:34:25;;;;;;;11.38;7.85;;;;;;;;;;5094475;28;20020;-62
2022/02/14 09:36:56;;;;;;;11.45;6.72;;;;;;;;;;5094440;28;20056;-61
2022/02/14 09:39:22;;;;;;;11.70;6.90;;;;;;;;;;5094566;28;20020;-62
2022/02/14 09:41:48;;;;;;;11.68;7.53;;;;;;;;;;5094651;28;20042;-63
2022/02/14 09:44:15;;;;;;;11.73;6.82;;;;;;;;;;5094231;28;20081;-62
2022/02/14 09:46:42;;;;;;;12.30;7.00;;;;;;;;;;5094167;28;20103;-62
2022/02/14 09:49:09;;;;;;;11.13;6.68;;;;;;;;;;5094109;28;20024;-62
2022/02/14 09:51:36;;;;;;;10.35;6.43;;;;;;;;;;5094381;28;20077;-62
2022/02/14 09:54:03;;;;;;;14.32;7.93;;;;;;;;;;5094282;28;20113;-63
2022/02/14 09:56:32;;;;;;;15.32;7.00;;;;;;;;;;5075894;28;20391;-63
2022/02/14 09:58:59;;;;;;;16.42;6.97;;;;;;;;;;5093899;28;20024;-63
2022/02/14 10:01:31;;;;;;;16.08;7.43;;;;;;;;;;5093755;28;20123;-63
2022/02/14 10:03:57;;;;;;;18.20;8.88;;;;;;;;;;5094054;28;20027;-64
2022/02/14 10:06:30;;;;;;;30.10;7.80;;;;;;;;;;5076218;28;20475;-62
2022/02/14 10:09:15;;;;;;;16.58;7.63;;;;;;;;;;5093935;28;20024;-64
2022/02/14 10:12:08;;;;;;;15.93;7.32;;;;;;;;;;5093957;28;20020;-65
2022/02/14 10:14:35;;;;;;;13.80;7.78;;;;;;;;;;5093532;28;20145;-64
2022/02/14 10:17:18;;;;;;;10.98;7.15;;;;;;;;;;5093685;28;20030;-61
2022/02/14 10:20:00;;;;;;;14.48;7.85;;;;;;;;;;5093461;28;20012;-64
2022/02/14 10:22:27;;;;;;;16.20;6.82;;;;;;;;;;5075673;28;20031;-64
2022/02/14 10:24:53;;;;;;;11.93;6.15;;;;;;;;;;5093724;28;20028;-64
2022/02/14 10:27:30;;;;;;;17.25;8.20;;;;;;;;;;5093657;28;20024;-64
2022/02/14 10:30:06;;;;;;;13.65;7.38;;;;;;;;;;5093075;28;20102;-62
2022/02/14 10:32:32;;;;;;;11.88;6.97;;;;;;;;;;5093301;28;20418;-66
2022/02/14 10:35:00;;;;;;;11.55;7.47;;;;;;;;;;5093170;28;20020;-62
2022/02/14 10:37:43;;;;;;;18.00;6.88;;;;;;;;;;5074726;28;20031;-61
2022/02/14 10:40:10;;;;;;;14.23;7.10;;;;;;;;;;5073198;28;20024;-61
2022/02/14 10:42:36;;;;;;;11.73;6.40;;;;;;;;;;5073151;28;20048;-63
2022/02/14 10:45:09;;;;;;;11.68;7.07;;;;;;;;;;5073130;28;20107;-62
2022/02/14 10:47:35;;;;;;;16.33;7.00;;;;;;;;;;5074672;28;20029;-59
2022/02/14 10:50:11;;;;;;;13.18;7.07;;;;;;;;;;5092932;28;20031;-62
2022/02/14 10:52:39;;;;;;;11.63;6.38;;;;;;;;;;5092926;28;20015;-61
2022/02/14 10:55:06;;;;;;;10.07;6.55;;;;;;;;;;5093177;28;20035;-62
2022/02/14 10:57:34;;;;;;;12.18;7.20;;;;;;;;;;5092889;28;20110;-59
2022/02/14 11:00:00;;;;;;;14.20;6.68;;;;;;;;;;5091586;28;20031;-59
2022/02/14 11:02:27;;;;;;;12.82;7.38;;;;;;;;;;5091988;28;20040;-61
2022/02/14 11:04:53;;;;;;;12.77;6.75;;;;;;;;;;5092869;28;20032;-60
2022/02/14 11:07:20;;;;;;;13.40;7.47;;;;;;;;;;5092860;28;20039;-62
2022/02/14 11:09:50;;;;;;;11.95;5.90;;;;;;;;;;5092895;28;20026;-60
2022/02/14 11:12:18;;;;;;;14.32;6.57;;;;;;;;;;5092621;28;20517;-61
2022/02/14 11:14:45;;;;;;;17.70;6.95;;;;;;;;;;5092397;28;20012;-62
2022/02/14 11:17:13;;;;;;;9.85;6.68;;;;;;;;;;5092837;28;20399;-62
2022/02/14 11:19:42;;;;;;;12.70;6.25;;;;;;;;;;5092689;28;20054;-63
2022/02/14 11:22:09;;;;;;;10.43;6.32;;;;;;;;;;5092405;28;20093;-61
2022/02/14 11:24:36;;;;;;;11.20;5.75;;;;;;;;;;5092525;28;20069;-62
2022/02/14 11:27:05;;;;;;;16.65;6.13;;;;;;;;;;5106329;28;20108;-62
2022/02/14 11:29:40;;;;;;;10.48;5.85;;;;;;;;;;5112976;28;20330;-62
2022/02/14 11:32:20;;;;;;;15.43;5.95;;;;;;;;;;5112915;28;20020;-62
2022/02/14 11:34:53;;;;;;;10.90;6.85;;;;;;;;;;5112598;28;20098;-62
2022/02/14 11:37:19;;;;;;;11.27;5.88;;;;;;;;;;5112834;28;20467;-62
2022/02/14 11:39:45;;;;;;;9.80;6.65;;;;;;;;;;5112623;28;20023;-62
2022/02/14 11:42:12;;;;;;;11.05;5.93;;;;;;;;;;5112413;28;20016;-62
2022/02/14 11:44:39;;;;;;;11.38;7.05;;;;;;;;;;5112693;28;20085;-60
2022/02/14 11:47:09;;;;;;;10.32;6.03;;;;;;;;;;5112574;28;20019;-62
2022/02/14 11:49:40;;;;;;;11.63;6.47;;;;;;;;;;5112611;28;20028;-62
2022/02/14 11:52:08;;;;;;;9.55;5.90;;;;;;;;;;5112717;28;20475;-62
2022/02/14 11:54:40;;;;;;;9.88;6.45;;;;;;;;;;5112626;28;20024;-62
2022/02/14 11:57:15;;;;;;;11.13;6.65;;;;;;;;;;5112487;28;20110;-61
2022/02/14 11:59:41;;;;;;;10.10;6.53;;;;;;;;;;5112471;28;20102;-62
2022/02/14 12:02:08;;;;;;;10.10;6.20;;;;;;;;;;5112178;28;20051;-61
2022/02/14 12:04:38;;;;;;;10.32;6.07;;;;;;;;;;5112460;28;20601;-62
2022/02/14 12:07:16;;;;;;;12.00;6.20;;;;;;;;;;5112462;28;20023;-62
2022/02/14 12:10:00;;;;;;;13.13;6.82;;;;;;;;;;5112266;28;20050;-61
2022/02/14 12:12:59;;;;;;;11.77;6.95;;;;;;;;;;5112183;28;20044;-62
2022/02/14 12:20:47;;;;;;;10.18;5.90;;;;;;;;;;5099087;28;20054;-62
2022/02/14 12:23:13;;;;;;;10.35;6.20;;;;;;;;;;5092017;28;20502;-61
2022/02/14 12:25:49;;;;;;;11.40;6.55;;;;;;;;;;5092019;28;20039;-62
2022/02/14 12:28:16;;;;;;;12.88;7.20;;;;;;;;;;5092007;28;20023;-62
2022/02/14 12:30:43;;;;;;;10.23;6.47;;;;;;;;;;5091586;28;20020;-62
2022/02/14 12:33:11;;;;;;;10.93;6.43;;;;;;;;;;5091955;28;20017;-63
2022/02/14 12:35:39;;;;;;;10.85;6.40;;;;;;;;;;5091774;28;20032;-62
2022/02/14 12:38:05;;;;;;;10.38;6.05;;;;;;;;;;5069232;28;20385;-62
2022/02/14 12:41:07;;;;;;;10.23;6.15;;;;;;;;;;5071466;28;20036;-62
2022/02/14 12:43:35;;;;;;;10.57;6.53;;;;;;;;;;5008972;28;20037;-62
2022/02/14 12:46:09;;;;;;;14.35;6.85;;;;;;;;;;5059284;28;20028;-61
2022/02/14 12:48:51;;;;;;;9.40;5.63;;;;;;;;;;5071075;28;20025;-62
2022/02/14 12:51:21;;;;;;;13.80;6.57;;;;;;;;;;5071356;28;20081;-63
2022/02/14 12:53:53;;;;;;;11.43;6.30;;;;;;;;;;5072183;28;20043;-63
2022/02/14 12:56:20;;;;;;;14.82;5.88;;;;;;;;;;5075055;28;20033;-63
2022/02/14 12:58:55;;;;;;;26.95;7.45;;;;;;;;;;5074790;28;20021;-63
2022/02/14 13:01:22;;;;;;;12.60;6.32;;;;;;;;;;5074327;28;20652;-63
2022/02/14 13:03:58;;;;;;;13.15;6.63;;;;;;;;;;5074810;28;20021;-64
2022/02/14 13:06:41;;;;;;;9.82;5.95;;;;;;;;;;5074606;28;20055;-64
2022/02/14 13:09:22;;;;;;;9.32;6.30;;;;;;;;;;5074575;28;20024;-59
2022/02/14 13:11:49;;;;;;;11.93;6.07;;;;;;;;;;5075030;28;20021;-61
2022/02/14 13:14:31;;;;;;;8.93;5.40;;;;;;;;;;5074676;28;20075;-63
2022/02/14 13:16:57;;;;;;;11.73;6.50;;;;;;;;;;5074822;28;20029;-62
2022/02/14 13:19:24;;;;;;;9.45;5.60;;;;;;;;;;5076585;28;20021;-64
2022/02/14 13:21:50;;;;;;;11.13;6.28;;;;;;;;;;5095257;28;20031;-63
2022/02/14 13:24:20;;;;;;;12.40;5.80;;;;;;;;;;5095175;28;20368;-60
2022/02/14 13:26:46;;;;;;;9.38;5.88;;;;;;;;;;5094709;28;20028;-63
2022/02/14 13:29:13;;;;;;;10.70;6.55;;;;;;;;;;5094810;28;20023;-64
2022/02/14 13:31:39;;;;;;;10.63;6.47;;;;;;;;;;5094589;28;20032;-64
2022/02/14 13:34:08;;;;;;;9.88;6.45;;;;;;;;;;5094492;28;20028;-62
2022/02/14 13:36:35;;;;;;;9.48;5.55;;;;;;;;;;5094865;28;20178;-62
2022/02/14 13:39:01;;;;;;;10.23;6.15;;;;;;;;;;5094607;28;20047;-60
2022/02/14 13:41:29;;;;;;;9.93;6.47;;;;;;;;;;5094546;28;20077;-60
2022/02/14 13:43:56;;;;;;;10.07;6.47;;;;;;;;;;5094528;28;20048;-63
2022/02/14 13:46:29;;;;;;;9.30;6.10;;;;;;;;;;5094474;28;20027;-63
2022/02/14 13:48:55;;;;;;;11.63;5.60;;;;;;;;;;5094065;28;20077;-63
2022/02/14 13:51:29;;;;;;;12.10;6.25;;;;;;;;;;5093918;28;20071;-61
2022/02/14 13:53:56;;;;;;;11.85;6.38;;;;;;;;;;5093628;28;20052;-64
2022/02/14 13:56:22;;;;;;;9.13;5.70;;;;;;;;;;5093584;28;20030;-63
2022/02/14 13:58:52;;;;;;;14.50;7.03;;;;;;;;;;5075387;28;20107;-63
2022/02/14 14:01:20;;;;;;;11.30;6.97;;;;;;;;;;5093310;28;20422;-63
2022/02/14 14:03:47;;;;;;;11.77;6.57;;;;;;;;;;5094091;28;20099;-61
2022/02/14 14:06:26;;;;;;;10.45;6.43;;;;;;;;;;5093588;28;20503;-66
2022/02/14 14:08:53;;;;;;;10.98;5.97;;;;;;;;;;5093876;28;20089;-65
2022/02/14 14:11:29;;;;;;;11.65;6.57;;;;;;;;;;5093260;28;20453;-65
2022/02/14 14:13:56;;;;;;;12.93;6.47;;;;;;;;;;5093706;28;20016;-66
2022/02/14 14:16:22;;;;;;;12.40;5.93;;;;;;;;;;5093921;28;20047;-65
2022/02/14 14:18:48;;;;;;;13.02;6.63;;;;;;;;;;5093484;28;20028;-63
2022/02/14 14:21:16;;;;;;;9.50;5.40;;;;;;;;;;5076100;28;20024;-64
2022/02/14 14:23:42;;;;;;;10.73;5.40;;;;;;;;;;5073419;28;20106;-62
2022/02/14 14:26:08;;;;;;;15.38;6.70;;;;;;;;;;5073259;28;20028;-60
2022/02/14 14:28:35;;;;;;;11.25;6.55;;;;;;;;;;5072881;28;20036;-62
2022/02/14 14:31:02;;;;;;;11.52;5.53;;;;;;;;;;5072705;28;20024;-65
2022/02/14 14:33:28;;;;;;;12.52;6.32;;;;;;;;;;5072947;28;20398;-62
2022/02/14 14:35:55;;;;;;;14.27;6.43;;;;;;;;;;5072565;28;20042;-64
2022/02/14 14:38:21;;;;;;;13.15;6.68;;;;;;;;;;5071766;28;20025;-60
2022/02/14 14:40:47;;;;;;;11.13;6.60;;;;;;;;;;5072498;28;20032;-60